sensor_id;sensor_type;location;lat;lon;timestamp;P1;durP1;ratioP1;P2;durP2;ratioP2
17993;SDS011;9122;48.406;9.984;2023-05-10T00:01:48;1.60;;;1.50;;
17993;SDS011;9122;48.406;9.984;2023-05-10T00:04:33;1.67;;;1.43;;
17993;SDS011;9122;48.406;9.984;2023-05-10T00:07:20;2.20;;;1.70;;
17993;SDS011;9122;48.406;9.984;2023-05-10T00:10:04;1.83;;;1.73;;
17993;SDS011;9122;48.406;9.984;2023-05-10T00:12:49;2.00;;;1.90;;
17993;SDS011;9122;48.406;9.984;2023-05-10T00:15:36;1.90;;;1.70;;
17993;SDS011;9122;48.406;9.984;2023-05-10T00:18:20;1.50;;;1.50;;
17993;SDS011;9122;48.406;9.984;2023-05-10T00:21:04;1.20;;;1.20;;
17993;SDS011;9122;48.406;9.984;2023-05-10T00:23:49;2.10;;;1.90;;
17993;SDS011;9122;48.406;9.984;2023-05-10T00:26:34;1.90;;;1.80;;
17993;SDS011;9122;48.406;9.984;2023-05-10T00:29:18;3.30;;;2.03;;
17993;SDS011;9122;48.406;9.984;2023-05-10T00:32:03;2.17;;;2.07;;
17993;SDS011;9122;48.406;9.984;2023-05-10T00:34:48;3.60;;;2.10;;
17993;SDS011;9122;48.406;9.984;2023-05-10T00:37:32;1.77;;;1.67;;
17993;SDS011;9122;48.406;9.984;2023-05-10T00:40:16;1.87;;;1.73;;
17993;SDS011;9122;48.406;9.984;2023-05-10T00:43:01;2.40;;;2.20;;
17993;SDS011;9122;48.406;9.984;2023-05-10T00:45:45;1.93;;;1.83;;
17993;SDS011;9122;48.406;9.984;2023-05-10T00:48:30;2.07;;;1.93;;
17993;SDS011;9122;48.406;9.984;2023-05-10T00:51:15;2.03;;;1.53;;
17993;SDS011;9122;48.406;9.984;2023-05-10T00:53:59;2.40;;;1.87;;
17993;SDS011;9122;48.406;9.984;2023-05-10T00:56:44;1.90;;;1.80;;
17993;SDS011;9122;48.406;9.984;2023-05-10T00:59:33;1.80;;;1.70;;
17993;SDS011;9122;48.406;9.984;2023-05-10T01:02:17;2.27;;;1.70;;
17993;SDS011;9122;48.406;9.984;2023-05-10T01:05:02;1.93;;;1.83;;
17993;SDS011;9122;48.406;9.984;2023-05-10T01:07:47;1.93;;;1.73;;
17993;SDS011;9122;48.406;9.984;2023-05-10T01:10:38;1.83;;;1.73;;
17993;SDS011;9122;48.406;9.984;2023-05-10T01:16:28;2.03;;;1.90;;
17993;SDS011;9122;48.406;9.984;2023-05-10T01:22:33;2.30;;;2.20;;
17993;SDS011;9122;48.406;9.984;2023-05-10T01:25:36;2.30;;;2.10;;
17993;SDS011;9122;48.406;9.984;2023-05-10T01:37:52;1.97;;;1.87;;
17993;SDS011;9122;48.406;9.984;2023-05-10T01:40:46;1.73;;;1.63;;
17993;SDS011;9122;48.406;9.984;2023-05-10T01:43:52;1.47;;;1.37;;
17993;SDS011;9122;48.406;9.984;2023-05-10T01:46:39;1.60;;;1.50;;
17993;SDS011;9122;48.406;9.984;2023-05-10T01:49:25;1.40;;;1.40;;
17993;SDS011;9122;48.406;9.984;2023-05-10T01:52:14;1.47;;;1.40;;
17993;SDS011;9122;48.406;9.984;2023-05-10T01:55:05;1.30;;;1.20;;
17993;SDS011;9122;48.406;9.984;2023-05-10T01:57:56;0.97;;;0.97;;
17993;SDS011;9122;48.406;9.984;2023-05-10T02:00:47;1.37;;;1.27;;
17993;SDS011;9122;48.406;9.984;2023-05-10T02:03:34;1.13;;;1.13;;
17993;SDS011;9122;48.406;9.984;2023-05-10T02:06:21;1.90;;;1.40;;
17993;SDS011;9122;48.406;9.984;2023-05-10T02:09:07;2.00;;;1.50;;
17993;SDS011;9122;48.406;9.984;2023-05-10T02:11:54;1.07;;;1.07;;
17993;SDS011;9122;48.406;9.984;2023-05-10T02:14:41;0.70;;;0.70;;
17993;SDS011;9122;48.406;9.984;2023-05-10T02:17:27;1.00;;;0.90;;
17993;SDS011;9122;48.406;9.984;2023-05-10T02:20:14;0.87;;;0.70;;
17993;SDS011;9122;48.406;9.984;2023-05-10T02:23:00;0.87;;;0.87;;
17993;SDS011;9122;48.406;9.984;2023-05-10T02:25:47;3.43;;;0.37;;
17993;SDS011;9122;48.406;9.984;2023-05-10T02:28:32;0.50;;;0.50;;
17993;SDS011;9122;48.406;9.984;2023-05-10T02:31:19;0.60;;;0.60;;
17993;SDS011;9122;48.406;9.984;2023-05-10T02:34:04;0.50;;;0.40;;
17993;SDS011;9122;48.406;9.984;2023-05-10T02:36:51;1.10;;;0.57;;
17993;SDS011;9122;48.406;9.984;2023-05-10T02:39:37;0.30;;;0.30;;
17993;SDS011;9122;48.406;9.984;2023-05-10T02:42:27;0.57;;;0.40;;
17993;SDS011;9122;48.406;9.984;2023-05-10T02:45:13;0.37;;;0.20;;
17993;SDS011;9122;48.406;9.984;2023-05-10T02:48:01;0.10;;;0.10;;
17993;SDS011;9122;48.406;9.984;2023-05-10T02:50:45;0.47;;;0.20;;
17993;SDS011;9122;48.406;9.984;2023-05-10T02:53:35;0.10;;;0.10;;
17993;SDS011;9122;48.406;9.984;2023-05-10T02:56:25;1.80;;;0.20;;
17993;SDS011;9122;48.406;9.984;2023-05-10T02:59:15;0.30;;;0.30;;
17993;SDS011;9122;48.406;9.984;2023-05-10T03:01:59;0.13;;;0.13;;
17993;SDS011;9122;48.406;9.984;2023-05-10T03:04:45;0.27;;;0.27;;
17993;SDS011;9122;48.406;9.984;2023-05-10T03:07:30;0.10;;;0.10;;
17993;SDS011;9122;48.406;9.984;2023-05-10T03:10:14;0.20;;;0.20;;
17993;SDS011;9122;48.406;9.984;2023-05-10T03:13:07;0.10;;;0.10;;
17993;SDS011;9122;48.406;9.984;2023-05-10T03:16:20;0.10;;;0.10;;
17993;SDS011;9122;48.406;9.984;2023-05-10T03:19:27;0.73;;;0.20;;
17993;SDS011;9122;48.406;9.984;2023-05-10T03:22:17;0.10;;;0.10;;
17993;SDS011;9122;48.406;9.984;2023-05-10T03:25:09;0.27;;;0.20;;
17993;SDS011;9122;48.406;9.984;2023-05-10T03:27:55;1.13;;;0.23;;
17993;SDS011;9122;48.406;9.984;2023-05-10T03:30:41;0.27;;;0.27;;
17993;SDS011;9122;48.406;9.984;2023-05-10T03:33:26;0.33;;;0.33;;
17993;SDS011;9122;48.406;9.984;2023-05-10T03:36:14;0.60;;;0.50;;
17993;SDS011;9122;48.406;9.984;2023-05-10T03:38:58;0.40;;;0.40;;
17993;SDS011;9122;48.406;9.984;2023-05-10T03:41:43;0.63;;;0.40;;
17993;SDS011;9122;48.406;9.984;2023-05-10T03:44:27;0.40;;;0.30;;
17993;SDS011;9122;48.406;9.984;2023-05-10T03:47:12;0.50;;;0.50;;
17993;SDS011;9122;48.406;9.984;2023-05-10T03:49:56;1.00;;;0.60;;
17993;SDS011;9122;48.406;9.984;2023-05-10T03:52:40;0.53;;;0.53;;
17993;SDS011;9122;48.406;9.984;2023-05-10T03:55:25;0.43;;;0.43;;
17993;SDS011;9122;48.406;9.984;2023-05-10T03:58:10;0.50;;;0.50;;
17993;SDS011;9122;48.406;9.984;2023-05-10T04:00:55;0.70;;;0.43;;
17993;SDS011;9122;48.406;9.984;2023-05-10T04:03:39;0.53;;;0.50;;
17993;SDS011;9122;48.406;9.984;2023-05-10T04:06:24;0.37;;;0.37;;
17993;SDS011;9122;48.406;9.984;2023-05-10T04:09:08;0.40;;;0.40;;
17993;SDS011;9122;48.406;9.984;2023-05-10T04:11:53;1.40;;;0.40;;
17993;SDS011;9122;48.406;9.984;2023-05-10T04:14:37;0.33;;;0.33;;
17993;SDS011;9122;48.406;9.984;2023-05-10T04:17:22;0.40;;;0.40;;
17993;SDS011;9122;48.406;9.984;2023-05-10T04:20:06;0.30;;;0.30;;
17993;SDS011;9122;48.406;9.984;2023-05-10T04:22:52;5.60;;;0.43;;
17993;SDS011;9122;48.406;9.984;2023-05-10T04:25:36;2.13;;;0.53;;
17993;SDS011;9122;48.406;9.984;2023-05-10T04:28:20;2.27;;;0.40;;
17993;SDS011;9122;48.406;9.984;2023-05-10T04:31:06;2.07;;;0.80;;
17993;SDS011;9122;48.406;9.984;2023-05-10T04:33:51;0.70;;;0.60;;
17993;SDS011;9122;48.406;9.984;2023-05-10T04:36:36;2.57;;;0.80;;
17993;SDS011;9122;48.406;9.984;2023-05-10T04:39:21;0.70;;;0.70;;
17993;SDS011;9122;48.406;9.984;2023-05-10T04:42:05;1.80;;;0.60;;
17993;SDS011;9122;48.406;9.984;2023-05-10T04:44:49;0.70;;;0.70;;
17993;SDS011;9122;48.406;9.984;2023-05-10T04:47:33;0.47;;;0.47;;
17993;SDS011;9122;48.406;9.984;2023-05-10T04:50:18;0.77;;;0.77;;
17993;SDS011;9122;48.406;9.984;2023-05-10T04:53:02;1.73;;;0.70;;
17993;SDS011;9122;48.406;9.984;2023-05-10T04:55:46;1.27;;;0.70;;
17993;SDS011;9122;48.406;9.984;2023-05-10T04:58:31;0.60;;;0.60;;
17993;SDS011;9122;48.406;9.984;2023-05-10T05:01:16;2.37;;;0.80;;
17993;SDS011;9122;48.406;9.984;2023-05-10T05:04:01;0.73;;;0.73;;
17993;SDS011;9122;48.406;9.984;2023-05-10T05:06:45;1.00;;;0.93;;
17993;SDS011;9122;48.406;9.984;2023-05-10T05:09:29;2.87;;;1.03;;
17993;SDS011;9122;48.406;9.984;2023-05-10T05:12:15;0.93;;;0.67;;
17993;SDS011;9122;48.406;9.984;2023-05-10T05:15:00;0.67;;;0.47;;
17993;SDS011;9122;48.406;9.984;2023-05-10T05:17:45;0.70;;;0.70;;
17993;SDS011;9122;48.406;9.984;2023-05-10T05:20:31;1.00;;;1.00;;
17993;SDS011;9122;48.406;9.984;2023-05-10T05:23:17;1.10;;;1.10;;
17993;SDS011;9122;48.406;9.984;2023-05-10T05:26:02;0.90;;;0.73;;
17993;SDS011;9122;48.406;9.984;2023-05-10T05:28:47;1.37;;;1.27;;
17993;SDS011;9122;48.406;9.984;2023-05-10T05:31:37;1.47;;;1.20;;
17993;SDS011;9122;48.406;9.984;2023-05-10T05:34:22;1.50;;;1.40;;
17993;SDS011;9122;48.406;9.984;2023-05-10T05:37:06;1.40;;;1.30;;
17993;SDS011;9122;48.406;9.984;2023-05-10T05:39:51;1.67;;;1.47;;
17993;SDS011;9122;48.406;9.984;2023-05-10T05:42:35;1.30;;;1.20;;
17993;SDS011;9122;48.406;9.984;2023-05-10T05:45:20;2.47;;;1.40;;
17993;SDS011;9122;48.406;9.984;2023-05-10T05:48:04;1.10;;;1.10;;
17993;SDS011;9122;48.406;9.984;2023-05-10T05:50:49;1.60;;;1.50;;
17993;SDS011;9122;48.406;9.984;2023-05-10T05:53:34;2.90;;;1.33;;
17993;SDS011;9122;48.406;9.984;2023-05-10T05:56:20;2.17;;;1.50;;
17993;SDS011;9122;48.406;9.984;2023-05-10T05:59:07;4.07;;;2.93;;
17993;SDS011;9122;48.406;9.984;2023-05-10T06:01:52;5.13;;;1.60;;
17993;SDS011;9122;48.406;9.984;2023-05-10T06:04:37;2.10;;;2.00;;
17993;SDS011;9122;48.406;9.984;2023-05-10T06:07:21;2.53;;;1.80;;
17993;SDS011;9122;48.406;9.984;2023-05-10T06:10:06;2.57;;;1.87;;
17993;SDS011;9122;48.406;9.984;2023-05-10T06:12:52;1.57;;;1.47;;
17993;SDS011;9122;48.406;9.984;2023-05-10T06:15:36;1.77;;;1.20;;
17993;SDS011;9122;48.406;9.984;2023-05-10T06:18:21;4.67;;;1.53;;
17993;SDS011;9122;48.406;9.984;2023-05-10T06:21:06;1.30;;;1.23;;
17993;SDS011;9122;48.406;9.984;2023-05-10T06:23:51;4.87;;;2.00;;
17993;SDS011;9122;48.406;9.984;2023-05-10T06:26:35;2.10;;;1.00;;
17993;SDS011;9122;48.406;9.984;2023-05-10T06:29:19;1.93;;;1.50;;
17993;SDS011;9122;48.406;9.984;2023-05-10T06:32:04;1.40;;;1.30;;
17993;SDS011;9122;48.406;9.984;2023-05-10T06:34:48;0.90;;;0.90;;
17993;SDS011;9122;48.406;9.984;2023-05-10T06:37:32;4.03;;;1.57;;
17993;SDS011;9122;48.406;9.984;2023-05-10T06:40:18;1.43;;;1.23;;
17993;SDS011;9122;48.406;9.984;2023-05-10T06:43:03;1.57;;;1.40;;
17993;SDS011;9122;48.406;9.984;2023-05-10T06:45:48;1.60;;;1.50;;
17993;SDS011;9122;48.406;9.984;2023-05-10T06:48:32;1.63;;;1.53;;
17993;SDS011;9122;48.406;9.984;2023-05-10T06:51:17;1.70;;;1.60;;
17993;SDS011;9122;48.406;9.984;2023-05-10T06:54:02;2.20;;;1.27;;
17993;SDS011;9122;48.406;9.984;2023-05-10T06:56:46;1.50;;;1.40;;
17993;SDS011;9122;48.406;9.984;2023-05-10T06:59:31;2.20;;;1.33;;
17993;SDS011;9122;48.406;9.984;2023-05-10T07:02:15;1.47;;;1.37;;
17993;SDS011;9122;48.406;9.984;2023-05-10T07:04:59;1.37;;;1.27;;
17993;SDS011;9122;48.406;9.984;2023-05-10T07:07:43;3.30;;;1.30;;
17993;SDS011;9122;48.406;9.984;2023-05-10T07:10:28;1.50;;;1.40;;
17993;SDS011;9122;48.406;9.984;2023-05-10T07:13:13;2.10;;;1.27;;
17993;SDS011;9122;48.406;9.984;2023-05-10T07:15:57;2.50;;;1.07;;
17993;SDS011;9122;48.406;9.984;2023-05-10T07:18:42;1.00;;;1.00;;
17993;SDS011;9122;48.406;9.984;2023-05-10T07:21:26;1.90;;;0.90;;
17993;SDS011;9122;48.406;9.984;2023-05-10T07:24:12;3.90;;;1.60;;
17993;SDS011;9122;48.406;9.984;2023-05-10T07:26:56;1.90;;;1.37;;
17993;SDS011;9122;48.406;9.984;2023-05-10T07:29:40;2.10;;;1.40;;
17993;SDS011;9122;48.406;9.984;2023-05-10T07:32:25;1.53;;;1.20;;
17993;SDS011;9122;48.406;9.984;2023-05-10T07:35:09;1.40;;;1.30;;
17993;SDS011;9122;48.406;9.984;2023-05-10T07:37:54;1.63;;;1.53;;
17993;SDS011;9122;48.406;9.984;2023-05-10T07:40:38;3.07;;;1.40;;
17993;SDS011;9122;48.406;9.984;2023-05-10T07:43:23;2.17;;;1.50;;
17993;SDS011;9122;48.406;9.984;2023-05-10T07:46:07;1.83;;;1.73;;
17993;SDS011;9122;48.406;9.984;2023-05-10T07:48:53;1.87;;;1.67;;
17993;SDS011;9122;48.406;9.984;2023-05-10T07:51:38;1.80;;;1.70;;
17993;SDS011;9122;48.406;9.984;2023-05-10T07:54:22;1.40;;;1.30;;
17993;SDS011;9122;48.406;9.984;2023-05-10T07:57:07;5.30;;;1.40;;
17993;SDS011;9122;48.406;9.984;2023-05-10T07:59:51;1.77;;;1.63;;
17993;SDS011;9122;48.406;9.984;2023-05-10T08:02:35;2.57;;;1.43;;
17993;SDS011;9122;48.406;9.984;2023-05-10T08:05:20;1.33;;;1.23;;
17993;SDS011;9122;48.406;9.984;2023-05-10T08:08:05;1.63;;;1.43;;
17993;SDS011;9122;48.406;9.984;2023-05-10T08:10:49;1.60;;;1.00;;
17993;SDS011;9122;48.406;9.984;2023-05-10T08:13:33;1.07;;;1.07;;
17993;SDS011;9122;48.406;9.984;2023-05-10T08:16:18;0.80;;;0.80;;
17993;SDS011;9122;48.406;9.984;2023-05-10T08:19:02;2.10;;;1.00;;
17993;SDS011;9122;48.406;9.984;2023-05-10T08:21:47;0.90;;;0.90;;
17993;SDS011;9122;48.406;9.984;2023-05-10T08:24:31;0.80;;;0.80;;
17993;SDS011;9122;48.406;9.984;2023-05-10T08:27:16;0.80;;;0.80;;
17993;SDS011;9122;48.406;9.984;2023-05-10T08:30:00;1.00;;;0.67;;
17993;SDS011;9122;48.406;9.984;2023-05-10T08:32:44;0.87;;;0.80;;
17993;SDS011;9122;48.406;9.984;2023-05-10T08:35:29;0.70;;;0.70;;
17993;SDS011;9122;48.406;9.984;2023-05-10T08:38:13;0.80;;;0.70;;
17993;SDS011;9122;48.406;9.984;2023-05-10T08:40:58;0.80;;;0.80;;
17993;SDS011;9122;48.406;9.984;2023-05-10T08:43:44;0.83;;;0.83;;
17993;SDS011;9122;48.406;9.984;2023-05-10T08:46:29;0.73;;;0.73;;
17993;SDS011;9122;48.406;9.984;2023-05-10T08:49:17;0.73;;;0.73;;
17993;SDS011;9122;48.406;9.984;2023-05-10T08:52:03;0.50;;;0.50;;
17993;SDS011;9122;48.406;9.984;2023-05-10T08:54:49;0.80;;;0.80;;
17993;SDS011;9122;48.406;9.984;2023-05-10T08:57:33;2.53;;;0.70;;
17993;SDS011;9122;48.406;9.984;2023-05-10T09:00:19;0.90;;;0.90;;
17993;SDS011;9122;48.406;9.984;2023-05-10T09:03:04;0.80;;;0.80;;
17993;SDS011;9122;48.406;9.984;2023-05-10T09:05:49;0.60;;;0.60;;
17993;SDS011;9122;48.406;9.984;2023-05-10T09:08:34;0.67;;;0.60;;
17993;SDS011;9122;48.406;9.984;2023-05-10T09:11:19;0.60;;;0.53;;
17993;SDS011;9122;48.406;9.984;2023-05-10T09:14:04;2.63;;;0.47;;
17993;SDS011;9122;48.406;9.984;2023-05-10T09:16:49;0.63;;;0.63;;
17993;SDS011;9122;48.406;9.984;2023-05-10T09:19:34;1.40;;;0.70;;
17993;SDS011;9122;48.406;9.984;2023-05-10T09:22:19;1.03;;;0.60;;
17993;SDS011;9122;48.406;9.984;2023-05-10T09:25:10;0.50;;;0.50;;
17993;SDS011;9122;48.406;9.984;2023-05-10T09:27:55;0.40;;;0.40;;
17993;SDS011;9122;48.406;9.984;2023-05-10T09:30:40;0.57;;;0.57;;
17993;SDS011;9122;48.406;9.984;2023-05-10T09:33:26;0.40;;;0.40;;
17993;SDS011;9122;48.406;9.984;2023-05-10T09:36:11;0.20;;;0.20;;
17993;SDS011;9122;48.406;9.984;2023-05-10T09:38:57;1.77;;;0.50;;
17993;SDS011;9122;48.406;9.984;2023-05-10T09:41:41;0.43;;;0.40;;
17993;SDS011;9122;48.406;9.984;2023-05-10T09:44:26;2.63;;;0.83;;
17993;SDS011;9122;48.406;9.984;2023-05-10T09:47:11;0.60;;;0.60;;
17993;SDS011;9122;48.406;9.984;2023-05-10T09:50:02;0.40;;;0.40;;
17993;SDS011;9122;48.406;9.984;2023-05-10T09:53:00;0.37;;;0.37;;
17993;SDS011;9122;48.406;9.984;2023-05-10T09:55:47;0.20;;;0.20;;
17993;SDS011;9122;48.406;9.984;2023-05-10T09:58:35;0.40;;;0.40;;
17993;SDS011;9122;48.406;9.984;2023-05-10T10:01:22;0.40;;;0.40;;
17993;SDS011;9122;48.406;9.984;2023-05-10T10:04:10;0.50;;;0.50;;
17993;SDS011;9122;48.406;9.984;2023-05-10T10:06:58;0.63;;;0.63;;
17993;SDS011;9122;48.406;9.984;2023-05-10T10:09:45;2.03;;;0.50;;
17993;SDS011;9122;48.406;9.984;2023-05-10T10:12:29;0.40;;;0.40;;
17993;SDS011;9122;48.406;9.984;2023-05-10T10:15:14;1.27;;;0.77;;
17993;SDS011;9122;48.406;9.984;2023-05-10T10:17:59;0.50;;;0.50;;
17993;SDS011;9122;48.406;9.984;2023-05-10T10:20:44;0.30;;;0.30;;
17993;SDS011;9122;48.406;9.984;2023-05-10T10:23:29;0.30;;;0.30;;
17993;SDS011;9122;48.406;9.984;2023-05-10T10:26:14;0.67;;;0.30;;
17993;SDS011;9122;48.406;9.984;2023-05-10T10:29:21;0.30;;;0.30;;
17993;SDS011;9122;48.406;9.984;2023-05-10T10:32:26;0.40;;;0.40;;
17993;SDS011;9122;48.406;9.984;2023-05-10T10:35:32;0.30;;;0.30;;
17993;SDS011;9122;48.406;9.984;2023-05-10T10:38:17;0.80;;;0.80;;
17993;SDS011;9122;48.406;9.984;2023-05-10T10:41:09;0.40;;;0.40;;
17993;SDS011;9122;48.406;9.984;2023-05-10T10:50:13;0.50;;;0.50;;
17993;SDS011;9122;48.406;9.984;2023-05-10T10:52:59;0.67;;;0.67;;
17993;SDS011;9122;48.406;9.984;2023-05-10T10:56:10;0.90;;;0.60;;
17993;SDS011;9122;48.406;9.984;2023-05-10T10:58:58;0.47;;;0.47;;
17993;SDS011;9122;48.406;9.984;2023-05-10T11:01:43;0.60;;;0.60;;
17993;SDS011;9122;48.406;9.984;2023-05-10T11:04:28;0.30;;;0.30;;
17993;SDS011;9122;48.406;9.984;2023-05-10T11:07:16;0.50;;;0.50;;
17993;SDS011;9122;48.406;9.984;2023-05-10T11:10:04;0.80;;;0.77;;
17993;SDS011;9122;48.406;9.984;2023-05-10T11:13:02;1.53;;;0.67;;
17993;SDS011;9122;48.406;9.984;2023-05-10T11:15:51;0.50;;;0.50;;
17993;SDS011;9122;48.406;9.984;2023-05-10T11:18:36;0.50;;;0.50;;
17993;SDS011;9122;48.406;9.984;2023-05-10T11:21:21;0.50;;;0.50;;
17993;SDS011;9122;48.406;9.984;2023-05-10T11:24:12;0.73;;;0.70;;
17993;SDS011;9122;48.406;9.984;2023-05-10T11:26:57;0.60;;;0.60;;
17993;SDS011;9122;48.406;9.984;2023-05-10T11:29:43;2.73;;;0.80;;
17993;SDS011;9122;48.406;9.984;2023-05-10T11:32:27;0.63;;;0.63;;
17993;SDS011;9122;48.406;9.984;2023-05-10T11:35:11;2.57;;;0.70;;
17993;SDS011;9122;48.406;9.984;2023-05-10T11:37:56;0.50;;;0.50;;
17993;SDS011;9122;48.406;9.984;2023-05-10T11:40:40;0.90;;;0.70;;
17993;SDS011;9122;48.406;9.984;2023-05-10T11:43:25;1.50;;;0.53;;
17993;SDS011;9122;48.406;9.984;2023-05-10T11:46:14;0.77;;;0.40;;
17993;SDS011;9122;48.406;9.984;2023-05-10T11:49:00;0.73;;;0.73;;
17993;SDS011;9122;48.406;9.984;2023-05-10T11:51:47;0.47;;;0.47;;
17993;SDS011;9122;48.406;9.984;2023-05-10T11:54:32;0.70;;;0.70;;
17993;SDS011;9122;48.406;9.984;2023-05-10T11:57:18;0.67;;;0.67;;
17993;SDS011;9122;48.406;9.984;2023-05-10T12:00:04;0.97;;;0.97;;
17993;SDS011;9122;48.406;9.984;2023-05-10T12:02:49;0.70;;;0.70;;
17993;SDS011;9122;48.406;9.984;2023-05-10T12:05:34;1.23;;;0.67;;
17993;SDS011;9122;48.406;9.984;2023-05-10T12:08:20;2.67;;;1.10;;
17993;SDS011;9122;48.406;9.984;2023-05-10T12:11:08;1.50;;;0.80;;
17993;SDS011;9122;48.406;9.984;2023-05-10T12:13:54;1.00;;;0.90;;
17993;SDS011;9122;48.406;9.984;2023-05-10T12:16:40;0.80;;;0.80;;
17993;SDS011;9122;48.406;9.984;2023-05-10T12:19:26;0.67;;;0.57;;
17993;SDS011;9122;48.406;9.984;2023-05-10T12:22:11;0.50;;;0.50;;
17993;SDS011;9122;48.406;9.984;2023-05-10T12:24:56;0.50;;;0.50;;
17993;SDS011;9122;48.406;9.984;2023-05-10T12:27:52;0.43;;;0.43;;
17993;SDS011;9122;48.406;9.984;2023-05-10T12:30:39;0.40;;;0.40;;
17993;SDS011;9122;48.406;9.984;2023-05-10T12:33:24;0.60;;;0.50;;
17993;SDS011;9122;48.406;9.984;2023-05-10T12:36:08;0.50;;;0.50;;
17993;SDS011;9122;48.406;9.984;2023-05-10T12:38:59;0.87;;;0.43;;
17993;SDS011;9122;48.406;9.984;2023-05-10T12:41:46;0.57;;;0.57;;
17993;SDS011;9122;48.406;9.984;2023-05-10T12:44:31;0.33;;;0.33;;
17993;SDS011;9122;48.406;9.984;2023-05-10T12:47:15;0.50;;;0.50;;
17993;SDS011;9122;48.406;9.984;2023-05-10T12:49:59;1.07;;;0.63;;
17993;SDS011;9122;48.406;9.984;2023-05-10T12:52:44;1.67;;;0.67;;
17993;SDS011;9122;48.406;9.984;2023-05-10T12:55:29;1.43;;;1.23;;
17993;SDS011;9122;48.406;9.984;2023-05-10T12:58:13;1.00;;;1.00;;
17993;SDS011;9122;48.406;9.984;2023-05-10T13:00:58;0.90;;;0.90;;
17993;SDS011;9122;48.406;9.984;2023-05-10T13:03:43;0.70;;;0.70;;
17993;SDS011;9122;48.406;9.984;2023-05-10T13:06:28;1.13;;;0.90;;
17993;SDS011;9122;48.406;9.984;2023-05-10T13:09:13;1.10;;;1.10;;
17993;SDS011;9122;48.406;9.984;2023-05-10T13:11:57;0.90;;;0.90;;
17993;SDS011;9122;48.406;9.984;2023-05-10T13:14:41;1.20;;;1.10;;
17993;SDS011;9122;48.406;9.984;2023-05-10T13:17:26;0.80;;;0.80;;
17993;SDS011;9122;48.406;9.984;2023-05-10T13:20:10;3.20;;;0.80;;
17993;SDS011;9122;48.406;9.984;2023-05-10T13:22:54;0.70;;;0.70;;
17993;SDS011;9122;48.406;9.984;2023-05-10T13:25:39;1.00;;;0.90;;
17993;SDS011;9122;48.406;9.984;2023-05-10T13:28:23;2.67;;;0.97;;
17993;SDS011;9122;48.406;9.984;2023-05-10T13:31:10;1.03;;;0.60;;
17993;SDS011;9122;48.406;9.984;2023-05-10T13:33:54;1.60;;;0.70;;
17993;SDS011;9122;48.406;9.984;2023-05-10T13:36:38;1.07;;;0.83;;
17993;SDS011;9122;48.406;9.984;2023-05-10T13:39:23;0.90;;;0.90;;
17993;SDS011;9122;48.406;9.984;2023-05-10T13:42:08;1.97;;;1.00;;
17993;SDS011;9122;48.406;9.984;2023-05-10T13:44:52;2.33;;;1.20;;
17993;SDS011;9122;48.406;9.984;2023-05-10T13:47:36;8.50;;;2.80;;
17993;SDS011;9122;48.406;9.984;2023-05-10T13:50:21;1.23;;;1.13;;
17993;SDS011;9122;48.406;9.984;2023-05-10T13:53:05;2.07;;;1.00;;
17993;SDS011;9122;48.406;9.984;2023-05-10T13:55:50;1.20;;;1.10;;
17993;SDS011;9122;48.406;9.984;2023-05-10T13:58:34;1.53;;;0.80;;
17993;SDS011;9122;48.406;9.984;2023-05-10T14:01:19;0.90;;;0.90;;
17993;SDS011;9122;48.406;9.984;2023-05-10T14:04:03;1.40;;;0.70;;
17993;SDS011;9122;48.406;9.984;2023-05-10T14:06:48;2.73;;;1.37;;
17993;SDS011;9122;48.406;9.984;2023-05-10T14:09:33;2.30;;;1.20;;
17993;SDS011;9122;48.406;9.984;2023-05-10T14:12:17;1.23;;;1.13;;
17993;SDS011;9122;48.406;9.984;2023-05-10T14:15:01;0.90;;;0.90;;
17993;SDS011;9122;48.406;9.984;2023-05-10T14:17:46;2.13;;;1.17;;
17993;SDS011;9122;48.406;9.984;2023-05-10T14:20:30;1.27;;;0.80;;
17993;SDS011;9122;48.406;9.984;2023-05-10T14:23:17;3.57;;;1.00;;
17993;SDS011;9122;48.406;9.984;2023-05-10T14:26:03;1.03;;;0.93;;
17993;SDS011;9122;48.406;9.984;2023-05-10T14:28:50;1.30;;;1.20;;
17993;SDS011;9122;48.406;9.984;2023-05-10T14:31:35;1.23;;;1.20;;
17993;SDS011;9122;48.406;9.984;2023-05-10T14:34:19;0.87;;;0.87;;
17993;SDS011;9122;48.406;9.984;2023-05-10T14:37:04;1.27;;;1.10;;
17993;SDS011;9122;48.406;9.984;2023-05-10T14:39:49;1.13;;;1.00;;
17993;SDS011;9122;48.406;9.984;2023-05-10T14:42:33;1.20;;;1.10;;
17993;SDS011;9122;48.406;9.984;2023-05-10T14:45:18;1.00;;;1.00;;
17993;SDS011;9122;48.406;9.984;2023-05-10T14:48:03;1.20;;;0.93;;
17993;SDS011;9122;48.406;9.984;2023-05-10T14:50:48;0.93;;;0.93;;
17993;SDS011;9122;48.406;9.984;2023-05-10T14:53:33;1.40;;;1.00;;
17993;SDS011;9122;48.406;9.984;2023-05-10T14:56:18;1.27;;;1.27;;
17993;SDS011;9122;48.406;9.984;2023-05-10T14:59:02;0.90;;;0.90;;
17993;SDS011;9122;48.406;9.984;2023-05-10T15:01:47;2.70;;;1.37;;
17993;SDS011;9122;48.406;9.984;2023-05-10T15:04:32;2.63;;;1.03;;
17993;SDS011;9122;48.406;9.984;2023-05-10T15:07:16;4.33;;;1.30;;
17993;SDS011;9122;48.406;9.984;2023-05-10T15:10:02;1.50;;;1.40;;
17993;SDS011;9122;48.406;9.984;2023-05-10T15:12:46;1.27;;;1.17;;
17993;SDS011;9122;48.406;9.984;2023-05-10T15:15:31;1.70;;;1.20;;
17993;SDS011;9122;48.406;9.984;2023-05-10T15:18:15;2.10;;;1.40;;
17993;SDS011;9122;48.406;9.984;2023-05-10T15:21:00;1.57;;;1.47;;
17993;SDS011;9122;48.406;9.984;2023-05-10T15:23:44;1.63;;;1.53;;
17993;SDS011;9122;48.406;9.984;2023-05-10T15:26:29;1.63;;;1.53;;
17993;SDS011;9122;48.406;9.984;2023-05-10T15:29:14;1.50;;;1.40;;
17993;SDS011;9122;48.406;9.984;2023-05-10T15:32:03;1.60;;;1.50;;
17993;SDS011;9122;48.406;9.984;2023-05-10T15:34:47;2.40;;;1.50;;
17993;SDS011;9122;48.406;9.984;2023-05-10T15:37:32;1.73;;;1.60;;
17993;SDS011;9122;48.406;9.984;2023-05-10T15:40:17;2.20;;;1.33;;
17993;SDS011;9122;48.406;9.984;2023-05-10T15:43:01;3.73;;;2.00;;
17993;SDS011;9122;48.406;9.984;2023-05-10T15:45:45;2.27;;;2.07;;
17993;SDS011;9122;48.406;9.984;2023-05-10T15:48:30;1.60;;;1.50;;
17993;SDS011;9122;48.406;9.984;2023-05-10T15:51:14;5.03;;;2.73;;
17993;SDS011;9122;48.406;9.984;2023-05-10T15:53:59;2.63;;;2.40;;
17993;SDS011;9122;48.406;9.984;2023-05-10T15:56:45;4.87;;;2.83;;
17993;SDS011;9122;48.406;9.984;2023-05-10T15:59:31;2.33;;;2.00;;
17993;SDS011;9122;48.406;9.984;2023-05-10T16:02:16;2.17;;;2.00;;
17993;SDS011;9122;48.406;9.984;2023-05-10T16:05:02;4.37;;;1.80;;
17993;SDS011;9122;48.406;9.984;2023-05-10T16:07:47;2.50;;;2.00;;
17993;SDS011;9122;48.406;9.984;2023-05-10T16:10:32;3.07;;;2.27;;
17993;SDS011;9122;48.406;9.984;2023-05-10T16:13:16;2.20;;;2.00;;
17993;SDS011;9122;48.406;9.984;2023-05-10T16:16:01;2.10;;;1.57;;
17993;SDS011;9122;48.406;9.984;2023-05-10T16:18:46;2.20;;;2.10;;
17993;SDS011;9122;48.406;9.984;2023-05-10T16:21:33;2.70;;;2.50;;
17993;SDS011;9122;48.406;9.984;2023-05-10T16:24:18;3.13;;;2.47;;
17993;SDS011;9122;48.406;9.984;2023-05-10T16:27:03;1.87;;;1.77;;
17993;SDS011;9122;48.406;9.984;2023-05-10T16:29:47;2.53;;;2.27;;
17993;SDS011;9122;48.406;9.984;2023-05-10T16:32:32;1.77;;;1.67;;
17993;SDS011;9122;48.406;9.984;2023-05-10T16:35:18;1.70;;;1.50;;
17993;SDS011;9122;48.406;9.984;2023-05-10T16:38:03;3.13;;;1.70;;
17993;SDS011;9122;48.406;9.984;2023-05-10T16:40:48;2.67;;;2.00;;
17993;SDS011;9122;48.406;9.984;2023-05-10T16:43:32;4.20;;;1.80;;
17993;SDS011;9122;48.406;9.984;2023-05-10T16:46:17;2.47;;;1.77;;
17993;SDS011;9122;48.406;9.984;2023-05-10T16:49:01;3.10;;;2.20;;
17993;SDS011;9122;48.406;9.984;2023-05-10T16:51:45;2.10;;;2.00;;
17993;SDS011;9122;48.406;9.984;2023-05-10T16:54:30;3.53;;;1.90;;
17993;SDS011;9122;48.406;9.984;2023-05-10T16:57:14;1.93;;;1.57;;
17993;SDS011;9122;48.406;9.984;2023-05-10T16:59:58;2.67;;;1.80;;
17993;SDS011;9122;48.406;9.984;2023-05-10T17:02:43;1.93;;;1.83;;
17993;SDS011;9122;48.406;9.984;2023-05-10T17:05:28;2.37;;;2.00;;
17993;SDS011;9122;48.406;9.984;2023-05-10T17:08:12;2.93;;;1.93;;
17993;SDS011;9122;48.406;9.984;2023-05-10T17:10:59;3.20;;;2.10;;
17993;SDS011;9122;48.406;9.984;2023-05-10T17:13:44;2.80;;;1.70;;
17993;SDS011;9122;48.406;9.984;2023-05-10T17:16:29;1.93;;;1.60;;